Time;durP1;ratioP1;P1;durP2;ratioP2;P2;SDS_P1;SDS_P2;PMS_P1;PMS_P2;Temp;Humidity;BMP_temperature;BMP_pressure;BME280_temperature;BME280_humidity;BME280_pressure;Samples;Min_cycle;Max_cycle;Signal;HPM_P1;HPM_P2
2021/09/08 00:00:04;;;;;;;10.30;1.20;;;;;;;;;;4991224;28;20038;-58
2021/09/08 00:02:30;;;;;;;4.03;1.05;;;;;;;;;;4987737;28;20092;-58
2021/09/08 00:04:56;;;;;;;3.10;1.00;;;;;;;;;;4989035;28;21000;-59
2021/09/08 00:07:21;;;;;;;5.90;1.00;;;;;;;;;;4988709;28;20046;-59
2021/09/08 00:09:47;;;;;;;2.83;0.93;;;;;;;;;;4989886;28;20145;-59
2021/09/08 00:12:13;;;;;;;7.15;1.02;;;;;;;;;;4988939;28;20665;-59
2021/09/08 00:14:40;;;;;;;4.80;0.98;;;;;;;;;;4988780;28;20077;-61
2021/09/08 00:17:06;;;;;;;3.30;1.20;;;;;;;;;;4991504;28;21303;-60
2021/09/08 00:19:32;;;;;;;3.55;1.02;;;;;;;;;;4988466;28;20516;-58
2021/09/08 00:21:57;;;;;;;4.03;1.10;;;;;;;;;;5020913;28;20042;-57
2021/09/08 00:24:23;;;;;;;8.38;1.38;;;;;;;;;;4990813;28;20096;-59
2021/09/08 00:26:49;;;;;;;4.13;1.40;;;;;;;;;;4989913;28;20535;-57
2021/09/08 00:29:15;;;;;;;9.25;1.10;;;;;;;;;;4989457;28;20066;-58
2021/09/08 00:31:41;;;;;;;3.80;1.40;;;;;;;;;;4987314;28;20999;-58
2021/09/08 00:34:06;;;;;;;5.22;1.00;;;;;;;;;;4989181;28;20034;-57
2021/09/08 00:36:32;;;;;;;2.90;0.95;;;;;;;;;;4989618;28;20057;-58
2021/09/08 00:38:58;;;;;;;5.15;0.95;;;;;;;;;;4990176;28;20399;-58
2021/09/08 00:41:24;;;;;;;4.07;1.15;;;;;;;;;;4988787;28;20519;-58
2021/09/08 00:43:50;;;;;;;3.97;1.05;;;;;;;;;;4991057;28;20045;-57
2021/09/08 00:46:16;;;;;;;5.18;0.85;;;;;;;;;;4989271;28;20034;-58
2021/09/08 00:48:41;;;;;;;3.33;1.00;;;;;;;;;;4988826;28;20038;-59
2021/09/08 00:51:07;;;;;;;8.00;1.10;;;;;;;;;;4987845;28;20549;-59
2021/09/08 00:53:34;;;;;;;5.07;1.25;;;;;;;;;;4989097;28;20069;-59
2021/09/08 00:56:02;;;;;;;4.97;1.52;;;;;;;;;;4990147;28;20503;-59
2021/09/08 00:58:28;;;;;;;5.80;1.15;;;;;;;;;;4990586;28;20622;-58
2021/09/08 01:00:54;;;;;;;2.88;1.02;;;;;;;;;;4989432;28;20066;-56
2021/09/08 01:03:19;;;;;;;5.50;1.00;;;;;;;;;;4996908;28;20048;-58
2021/09/08 01:05:46;;;;;;;6.97;1.15;;;;;;;;;;4988384;28;20038;-56
2021/09/08 01:08:12;;;;;;;8.63;1.33;;;;;;;;;;4987695;28;20128;-57
2021/09/08 01:10:38;;;;;;;11.68;1.20;;;;;;;;;;4990860;28;20049;-57
2021/09/08 01:13:05;;;;;;;4.40;1.25;;;;;;;;;;4991944;28;20038;-58
2021/09/08 01:15:30;;;;;;;11.32;1.58;;;;;;;;;;4991756;28;20053;-58
2021/09/08 01:17:56;;;;;;;8.35;1.60;;;;;;;;;;4990640;28;20050;-58
2021/09/08 01:20:22;;;;;;;9.82;1.35;;;;;;;;;;4989973;28;20134;-59
2021/09/08 01:22:49;;;;;;;12.00;1.85;;;;;;;;;;4991727;28;20038;-60
2021/09/08 01:25:19;;;;;;;13.30;1.70;;;;;;;;;;5001763;28;20041;-58
2021/09/08 01:27:45;;;;;;;5.32;1.67;;;;;;;;;;4991553;28;20041;-57
2021/09/08 01:30:11;;;;;;;10.85;1.40;;;;;;;;;;5001208;28;20038;-59
2021/09/08 01:32:37;;;;;;;3.85;1.25;;;;;;;;;;4989993;28;20058;-59
2021/09/08 01:35:03;;;;;;;12.90;1.45;;;;;;;;;;4993742;28;20038;-57
2021/09/08 01:37:29;;;;;;;5.20;1.42;;;;;;;;;;4991290;28;20084;-59
2021/09/08 01:39:54;;;;;;;7.72;1.33;;;;;;;;;;4992943;28;20607;-58
2021/09/08 01:42:20;;;;;;;9.70;1.70;;;;;;;;;;4993789;28;20049;-59
2021/09/08 01:44:46;;;;;;;11.10;1.45;;;;;;;;;;4996481;28;20718;-59
2021/09/08 01:47:17;;;;;;;11.32;1.58;;;;;;;;;;4993491;28;20038;-59
2021/09/08 01:49:43;;;;;;;8.48;1.20;;;;;;;;;;4992281;28;20395;-59
2021/09/08 01:52:09;;;;;;;9.00;1.70;;;;;;;;;;4998507;28;20764;-59
2021/09/08 01:54:35;;;;;;;5.28;1.52;;;;;;;;;;4992219;28;20046;-59
2021/09/08 01:57:00;;;;;;;12.30;1.40;;;;;;;;;;4993537;28;20111;-58
2021/09/08 01:59:26;;;;;;;10.30;1.50;;;;;;;;;;4994899;28;20047;-59
2021/09/08 02:01:53;;;;;;;4.78;1.00;;;;;;;;;;4997784;28;20054;-59
2021/09/08 02:04:19;;;;;;;11.02;1.42;;;;;;;;;;5008853;28;20036;-58
2021/09/08 02:06:49;;;;;;;5.68;1.38;;;;;;;;;;4994256;28;20038;-59
2021/09/08 02:09:15;;;;;;;10.65;1.40;;;;;;;;;;4991496;28;20055;-60
2021/09/08 02:11:41;;;;;;;6.63;1.33;;;;;;;;;;5009618;28;20041;-59
2021/09/08 02:14:07;;;;;;;9.93;1.20;;;;;;;;;;4989371;28;20038;-60
2021/09/08 02:16:33;;;;;;;4.90;1.10;;;;;;;;;;4988320;28;20065;-59
2021/09/08 02:18:59;;;;;;;6.13;1.40;;;;;;;;;;4989076;28;20042;-59
2021/09/08 02:21:25;;;;;;;7.78;1.73;;;;;;;;;;4986697;28;20452;-59
2021/09/08 02:23:51;;;;;;;9.55;1.85;;;;;;;;;;4987367;28;20044;-58
2021/09/08 02:26:17;;;;;;;8.02;2.05;;;;;;;;;;4983934;28;20038;-57
2021/09/08 02:28:43;;;;;;;7.40;1.67;;;;;;;;;;4986580;28;22106;-58
2021/09/08 02:31:09;;;;;;;10.40;1.65;;;;;;;;;;4987838;28;20046;-57
2021/09/08 02:33:35;;;;;;;11.77;2.65;;;;;;;;;;4985037;28;20073;-57
2021/09/08 02:36:01;;;;;;;9.80;2.10;;;;;;;;;;4987147;28;20613;-58
2021/09/08 02:38:28;;;;;;;16.10;1.90;;;;;;;;;;4987414;28;20042;-57
2021/09/08 02:40:54;;;;;;;10.65;1.55;;;;;;;;;;4986801;28;20422;-57
2021/09/08 02:43:20;;;;;;;9.18;1.48;;;;;;;;;;4994896;28;20042;-59
2021/09/08 02:45:45;;;;;;;8.77;2.20;;;;;;;;;;4996080;28;20518;-58
2021/09/08 02:48:11;;;;;;;6.40;1.63;;;;;;;;;;4986535;28;20062;-57
2021/09/08 02:50:37;;;;;;;10.40;2.00;;;;;;;;;;4985449;28;20046;-58
2021/09/08 02:53:03;;;;;;;7.82;1.52;;;;;;;;;;4987446;28;20054;-58
2021/09/08 02:55:29;;;;;;;7.40;1.27;;;;;;;;;;4986825;28;20181;-58
2021/09/08 02:57:55;;;;;;;7.35;1.48;;;;;;;;;;4986392;28;20049;-54
2021/09/08 03:00:20;;;;;;;13.85;1.75;;;;;;;;;;4985427;28;20625;-58
2021/09/08 03:02:46;;;;;;;11.40;2.22;;;;;;;;;;4991764;28;20042;-57
2021/09/08 03:05:12;;;;;;;14.60;1.95;;;;;;;;;;4985754;28;20085;-59
2021/09/08 03:07:38;;;;;;;7.13;1.60;;;;;;;;;;4985498;28;20038;-58
2021/09/08 03:10:04;;;;;;;10.95;1.80;;;;;;;;;;4985886;28;20046;-58
2021/09/08 03:12:30;;;;;;;4.60;1.27;;;;;;;;;;4987619;28;20072;-56
2021/09/08 03:14:56;;;;;;;10.45;1.70;;;;;;;;;;4987238;28;20065;-58
2021/09/08 03:17:21;;;;;;;7.45;1.40;;;;;;;;;;4985472;28;20283;-56
2021/09/08 03:19:47;;;;;;;9.95;1.70;;;;;;;;;;4986303;28;20034;-57
2021/09/08 03:22:13;;;;;;;7.18;1.90;;;;;;;;;;4985564;28;20120;-57
2021/09/08 03:24:39;;;;;;;5.55;1.70;;;;;;;;;;4986784;28;20048;-59
2021/09/08 03:27:05;;;;;;;5.57;1.38;;;;;;;;;;4986149;28;20042;-58
2021/09/08 03:29:31;;;;;;;5.20;1.48;;;;;;;;;;4986699;28;20057;-58
2021/09/08 03:31:57;;;;;;;10.35;1.77;;;;;;;;;;4990588;28;20045;-57
2021/09/08 03:34:23;;;;;;;6.32;1.52;;;;;;;;;;4989783;28;20523;-56
2021/09/08 03:36:48;;;;;;;11.48;1.38;;;;;;;;;;4991027;28;20048;-56
2021/09/08 03:39:14;;;;;;;14.40;1.77;;;;;;;;;;4991369;28;20038;-57
2021/09/08 03:41:40;;;;;;;6.00;1.48;;;;;;;;;;4990487;28;20391;-56
2021/09/08 03:44:06;;;;;;;5.38;1.50;;;;;;;;;;4991244;28;20156;-57
2021/09/08 03:46:32;;;;;;;8.73;1.55;;;;;;;;;;4989355;28;20035;-57
2021/09/08 03:48:57;;;;;;;7.25;1.63;;;;;;;;;;4999202;28;20120;-56
2021/09/08 03:51:23;;;;;;;13.00;1.60;;;;;;;;;;4988919;28;20057;-58
2021/09/08 03:53:49;;;;;;;9.35;1.42;;;;;;;;;;4990605;28;20066;-55
2021/09/08 03:56:15;;;;;;;6.68;1.48;;;;;;;;;;4991588;28;20112;-54
2021/09/08 03:59:01;;;;;;;6.53;1.20;;;;;;;;;;5048138;28;20655;-56
2021/09/08 04:01:26;;;;;;;6.57;1.45;;;;;;;;;;5048190;28;20152;-55
2021/09/08 04:03:52;;;;;;;7.50;1.77;;;;;;;;;;5046815;28;20028;-56
2021/09/08 04:06:19;;;;;;;6.43;1.33;;;;;;;;;;5045756;28;20511;-57
2021/09/08 04:08:45;;;;;;;7.82;1.63;;;;;;;;;;5044920;28;20055;-56
2021/09/08 04:11:11;;;;;;;10.63;1.45;;;;;;;;;;5050315;28;20037;-56
2021/09/08 04:13:37;;;;;;;17.92;2.20;;;;;;;;;;5046075;28;20044;-58
2021/09/08 04:16:03;;;;;;;8.73;1.40;;;;;;;;;;5048269;28;20055;-55
2021/09/08 04:18:29;;;;;;;8.95;1.58;;;;;;;;;;5046980;28;20528;-56
2021/09/08 04:20:54;;;;;;;8.68;1.55;;;;;;;;;;5046565;28;20045;-56
2021/09/08 04:23:21;;;;;;;7.38;1.75;;;;;;;;;;5047574;28;20473;-58
2021/09/08 04:25:46;;;;;;;24.25;2.55;;;;;;;;;;5046263;28;20048;-58
2021/09/08 04:28:12;;;;;;;8.10;1.60;;;;;;;;;;5047388;28;20041;-55
2021/09/08 04:30:38;;;;;;;11.00;1.63;;;;;;;;;;5045457;28;20436;-56
2021/09/08 04:33:04;;;;;;;7.78;1.92;;;;;;;;;;5041815;28;20040;-57
2021/09/08 04:35:30;;;;;;;12.05;2.03;;;;;;;;;;5043262;28;20452;-55
2021/09/08 04:37:56;;;;;;;12.98;1.90;;;;;;;;;;5003217;28;21257;-56
2021/09/08 04:40:22;;;;;;;5.63;1.38;;;;;;;;;;4988669;28;20042;-56
2021/09/08 04:42:48;;;;;;;10.73;2.10;;;;;;;;;;4989708;28;20615;-57
2021/09/08 04:45:13;;;;;;;6.43;1.45;;;;;;;;;;4990050;28;20141;-57
2021/09/08 04:47:40;;;;;;;10.98;1.75;;;;;;;;;;4990044;28;20038;-57
2021/09/08 04:50:06;;;;;;;13.52;1.60;;;;;;;;;;4989562;28;20045;-57
2021/09/08 04:52:34;;;;;;;12.02;2.17;;;;;;;;;;4988292;28;20128;-56
2021/09/08 04:55:01;;;;;;;12.32;2.22;;;;;;;;;;4988674;28;20668;-58
2021/09/08 04:57:27;;;;;;;9.55;1.75;;;;;;;;;;4988700;28;20050;-58
2021/09/08 04:59:52;;;;;;;7.57;1.35;;;;;;;;;;4986746;28;20402;-56
2021/09/08 05:02:19;;;;;;;16.10;1.90;;;;;;;;;;4988664;28;20049;-56
2021/09/08 05:04:44;;;;;;;8.07;1.70;;;;;;;;;;4989803;28;20111;-57
2021/09/08 05:07:10;;;;;;;7.55;1.70;;;;;;;;;;4990143;28;20133;-57
2021/09/08 05:09:36;;;;;;;18.17;1.83;;;;;;;;;;4988149;28;20041;-58
2021/09/08 05:12:02;;;;;;;9.90;1.75;;;;;;;;;;4988535;28;20046;-58
2021/09/08 05:14:28;;;;;;;10.52;1.75;;;;;;;;;;4987544;28;20062;-56
2021/09/08 05:16:54;;;;;;;8.95;1.75;;;;;;;;;;4987839;28;20046;-57
2021/09/08 05:19:20;;;;;;;7.38;1.63;;;;;;;;;;4994340;28;20064;-57
2021/09/08 05:21:46;;;;;;;11.05;1.50;;;;;;;;;;4992023;28;20065;-56
2021/09/08 05:24:12;;;;;;;8.35;1.88;;;;;;;;;;4993201;28;20057;-56
2021/09/08 05:26:37;;;;;;;6.72;1.60;;;;;;;;;;4989852;28;21619;-53
2021/09/08 05:29:04;;;;;;;13.35;2.10;;;;;;;;;;4992550;28;20030;-55
2021/09/08 05:31:29;;;;;;;12.25;1.70;;;;;;;;;;4993275;28;20038;-56
2021/09/08 05:33:55;;;;;;;9.50;1.80;;;;;;;;;;4992678;28;20465;-56
2021/09/08 05:36:21;;;;;;;16.33;2.00;;;;;;;;;;4993059;28;20422;-57
2021/09/08 05:38:47;;;;;;;6.50;1.40;;;;;;;;;;4996009;28;20054;-58
2021/09/08 05:41:13;;;;;;;9.40;1.92;;;;;;;;;;4994116;28;20113;-60
2021/09/08 05:43:38;;;;;;;6.82;1.65;;;;;;;;;;4993049;28;20074;-58
2021/09/08 05:46:04;;;;;;;8.70;1.35;;;;;;;;;;4990596;28;20073;-56
2021/09/08 05:48:32;;;;;;;8.80;1.60;;;;;;;;;;4991953;28;20527;-57
2021/09/08 05:50:58;;;;;;;8.13;1.77;;;;;;;;;;4990599;28;20042;-58
2021/09/08 05:53:24;;;;;;;9.43;1.35;;;;;;;;;;4988116;28;20050;-56
2021/09/08 05:55:51;;;;;;;9.07;1.50;;;;;;;;;;4992200;28;20510;-58
2021/09/08 05:58:17;;;;;;;5.45;1.52;;;;;;;;;;4988195;28;21880;-58
2021/09/08 06:00:43;;;;;;;11.23;1.92;;;;;;;;;;4998815;28;20046;-58
2021/09/08 06:03:08;;;;;;;7.63;1.35;;;;;;;;;;4987764;28;20121;-57
2021/09/08 06:05:34;;;;;;;5.60;1.60;;;;;;;;;;4985764;28;20042;-57
2021/09/08 06:08:00;;;;;;;10.30;1.63;;;;;;;;;;4987849;28;20882;-58
2021/09/08 06:10:26;;;;;;;7.72;1.80;;;;;;;;;;4986768;28;20157;-56
2021/09/08 06:12:51;;;;;;;5.80;1.27;;;;;;;;;;4985007;28;20042;-56
2021/09/08 06:15:20;;;;;;;6.85;1.55;;;;;;;;;;4986841;28;20120;-56
2021/09/08 06:17:46;;;;;;;7.82;1.67;;;;;;;;;;4987797;28;21390;-56
2021/09/08 06:20:12;;;;;;;8.32;1.80;;;;;;;;;;4985177;28;20121;-57
2021/09/08 06:22:38;;;;;;;8.52;1.30;;;;;;;;;;4985968;28;20087;-55
2021/09/08 06:25:04;;;;;;;7.25;1.50;;;;;;;;;;4986210;28;21993;-56
2021/09/08 06:27:30;;;;;;;10.30;1.60;;;;;;;;;;4986865;28;20407;-56
2021/09/08 06:29:56;;;;;;;6.78;1.27;;;;;;;;;;4984090;28;20092;-57
2021/09/08 06:32:22;;;;;;;7.65;1.48;;;;;;;;;;4986208;28;20070;-57
2021/09/08 06:34:48;;;;;;;7.90;1.58;;;;;;;;;;4985781;28;20039;-59
2021/09/08 06:37:15;;;;;;;4.40;1.40;;;;;;;;;;4987134;28;20100;-57
2021/09/08 06:39:40;;;;;;;8.30;1.40;;;;;;;;;;4984472;28;20503;-59
2021/09/08 06:42:06;;;;;;;7.60;1.40;;;;;;;;;;4986296;28;20122;-55
2021/09/08 06:44:32;;;;;;;8.57;1.90;;;;;;;;;;4984340;28;20045;-56
2021/09/08 06:46:58;;;;;;;7.80;1.45;;;;;;;;;;4986323;28;20029;-56
2021/09/08 06:49:24;;;;;;;13.50;1.95;;;;;;;;;;4985321;28;20073;-57
2021/09/08 06:51:50;;;;;;;6.20;1.67;;;;;;;;;;4985119;28;20050;-59
2021/09/08 06:54:15;;;;;;;10.95;1.90;;;;;;;;;;4986316;28;20046;-59
2021/09/08 06:56:42;;;;;;;9.57;1.85;;;;;;;;;;4985792;28;20054;-58
2021/09/08 06:59:08;;;;;;;10.27;1.40;;;;;;;;;;4986644;28;20053;-57
2021/09/08 07:01:33;;;;;;;6.38;1.50;;;;;;;;;;4984597;28;20562;-57
2021/09/08 07:03:59;;;;;;;12.20;1.42;;;;;;;;;;4989238;28;20862;-58
2021/09/08 07:06:25;;;;;;;4.45;1.30;;;;;;;;;;5000764;28;20034;-58
2021/09/08 07:08:51;;;;;;;9.48;1.70;;;;;;;;;;4994241;28;20763;-57
2021/09/08 07:11:17;;;;;;;11.15;2.00;;;;;;;;;;4998529;28;20122;-58
2021/09/08 07:13:43;;;;;;;7.20;1.50;;;;;;;;;;5003472;28;20050;-57
2021/09/08 07:16:09;;;;;;;7.70;1.73;;;;;;;;;;4993709;28;20062;-57
2021/09/08 07:18:35;;;;;;;8.55;1.60;;;;;;;;;;4995262;28;20081;-57
2021/09/08 07:21:01;;;;;;;5.68;1.17;;;;;;;;;;4994643;28;21279;-58
2021/09/08 07:23:27;;;;;;;17.20;1.60;;;;;;;;;;5000899;28;20044;-58
2021/09/08 07:25:52;;;;;;;7.65;1.83;;;;;;;;;;5003235;28;20030;-58
2021/09/08 07:28:18;;;;;;;11.05;1.30;;;;;;;;;;4993500;28;20507;-58
2021/09/08 07:30:46;;;;;;;3.92;1.17;;;;;;;;;;5021195;28;20795;-55
2021/09/08 07:33:12;;;;;;;6.72;1.30;;;;;;;;;;4989108;28;20031;-57
2021/09/08 07:35:38;;;;;;;6.65;1.60;;;;;;;;;;4989777;28;20046;-56
2021/09/08 07:38:03;;;;;;;7.88;1.70;;;;;;;;;;4991064;28;20046;-55
2021/09/08 07:40:29;;;;;;;5.97;1.35;;;;;;;;;;4988054;28;20042;-57
2021/09/08 07:42:55;;;;;;;7.13;1.77;;;;;;;;;;4989850;28;20532;-55
2021/09/08 07:45:21;;;;;;;5.90;1.52;;;;;;;;;;4988799;28;20046;-56
2021/09/08 07:47:47;;;;;;;8.30;1.40;;;;;;;;;;4988507;28;20121;-57
2021/09/08 07:50:13;;;;;;;5.68;1.25;;;;;;;;;;4999715;28;20506;-57
2021/09/08 07:52:38;;;;;;;8.90;1.27;;;;;;;;;;4989744;28;20042;-56
2021/09/08 07:55:05;;;;;;;11.32;1.50;;;;;;;;;;4996298;28;20048;-55
2021/09/08 07:57:30;;;;;;;9.77;1.50;;;;;;;;;;4989476;28;20617;-55
2021/09/08 07:59:56;;;;;;;6.45;1.38;;;;;;;;;;4987286;28;20050;-57
2021/09/08 08:02:22;;;;;;;4.20;1.30;;;;;;;;;;4990721;28;20045;-57
2021/09/08 08:04:48;;;;;;;6.05;1.17;;;;;;;;;;4998074;28;20112;-55
2021/09/08 08:07:14;;;;;;;6.40;1.60;;;;;;;;;;4988351;28;20908;-57
2021/09/08 08:09:42;;;;;;;8.25;1.48;;;;;;;;;;4987591;28;20046;-58
2021/09/08 08:12:09;;;;;;;5.75;1.40;;;;;;;;;;4988759;28;20061;-58
2021/09/08 08:14:35;;;;;;;5.45;1.55;;;;;;;;;;4988254;28;20053;-57
2021/09/08 08:17:01;;;;;;;5.15;1.40;;;;;;;;;;4986797;28;20447;-56
2021/09/08 08:19:27;;;;;;;9.25;1.63;;;;;;;;;;4986389;28;20065;-56
2021/09/08 08:21:53;;;;;;;6.90;1.35;;;;;;;;;;4989353;28;20186;-56
2021/09/08 08:24:19;;;;;;;8.07;1.65;;;;;;;;;;4989147;28;20053;-58
2021/09/08 08:26:45;;;;;;;6.03;1.33;;;;;;;;;;4987823;28;20667;-57
2021/09/08 08:29:11;;;;;;;10.48;1.60;;;;;;;;;;4988398;28;20046;-57
2021/09/08 08:31:37;;;;;;;10.02;1.85;;;;;;;;;;4988357;28;20049;-57
2021/09/08 08:34:03;;;;;;;8.73;1.80;;;;;;;;;;4988105;28;20049;-56
2021/09/08 08:36:28;;;;;;;16.67;1.58;;;;;;;;;;4987937;28;20038;-56
2021/09/08 08:38:54;;;;;;;8.98;1.92;;;;;;;;;;4990066;28;20057;-56
2021/09/08 08:41:22;;;;;;;6.20;1.50;;;;;;;;;;4988066;28;20044;-56
2021/09/08 08:43:49;;;;;;;5.75;1.25;;;;;;;;;;4989387;28;20046;-57
2021/09/08 08:46:15;;;;;;;10.30;1.50;;;;;;;;;;4990112;28;20125;-57
2021/09/08 08:48:41;;;;;;;8.98;1.58;;;;;;;;;;4987663;28;20930;-56
2021/09/08 08:51:07;;;;;;;10.18;1.50;;;;;;;;;;4994067;28;20198;-57
2021/09/08 08:53:33;;;;;;;9.90;1.40;;;;;;;;;;4992017;28;20045;-57
2021/09/08 08:55:59;;;;;;;7.38;1.50;;;;;;;;;;4989809;28;20049;-56
2021/09/08 08:58:25;;;;;;;5.53;1.00;;;;;;;;;;4989005;28;20053;-57
2021/09/08 09:01:23;;;;;;;11.38;1.77;;;;;;;;;;4987697;28;20919;-57
2021/09/08 09:03:58;;;;;;;5.15;1.52;;;;;;;;;;4985313;28;20034;-56
2021/09/08 09:06:24;;;;;;;4.30;1.40;;;;;;;;;;4989632;28;20046;-56
2021/09/08 09:09:10;;;;;;;6.07;1.27;;;;;;;;;;4996582;28;20052;-55
2021/09/08 09:11:36;;;;;;;7.05;1.40;;;;;;;;;;4988360;28;20683;-56
2021/09/08 09:14:02;;;;;;;5.97;1.55;;;;;;;;;;4989854;28;20042;-56
2021/09/08 09:16:29;;;;;;;7.78;1.73;;;;;;;;;;4988742;28;20144;-55
2021/09/08 09:18:54;;;;;;;5.35;1.08;;;;;;;;;;4989108;28;20057;-57
2021/09/08 09:21:22;;;;;;;10.63;1.55;;;;;;;;;;4988405;28;20097;-56
2021/09/08 09:23:55;;;;;;;4.43;1.63;;;;;;;;;;4988118;28;20041;-57
2021/09/08 09:26:21;;;;;;;10.23;1.55;;;;;;;;;;4987764;28;20065;-58
2021/09/08 09:28:47;;;;;;;8.80;1.45;;;;;;;;;;4987538;28;20037;-57
2021/09/08 09:31:14;;;;;;;6.13;1.80;;;;;;;;;;4987538;28;20077;-55
2021/09/08 09:33:44;;;;;;;10.93;1.60;;;;;;;;;;4989361;28;20063;-57
2021/09/08 09:36:21;;;;;;;10.35;1.63;;;;;;;;;;4988639;28;20066;-57
2021/09/08 09:38:47;;;;;;;6.97;1.48;;;;;;;;;;4988159;28;20050;-58
2021/09/08 09:41:15;;;;;;;8.05;1.75;;;;;;;;;;4986754;28;20088;-57
2021/09/08 09:43:41;;;;;;;9.00;2.00;;;;;;;;;;4987895;28;20050;-58
2021/09/08 09:46:08;;;;;;;5.30;1.20;;;;;;;;;;4988301;28;20038;-56
2021/09/08 09:48:34;;;;;;;13.38;1.75;;;;;;;;;;4988895;28;20117;-57
2021/09/08 09:51:04;;;;;;;10.45;1.45;;;;;;;;;;4989302;28;20593;-56
2021/09/08 09:53:30;;;;;;;7.10;1.50;;;;;;;;;;4989434;28;20046;-54
2021/09/08 09:55:56;;;;;;;11.23;1.67;;;;;;;;;;4988423;28;20395;-56
2021/09/08 09:58:22;;;;;;;16.20;2.08;;;;;;;;;;4987537;28;20051;-56
2021/09/08 10:00:48;;;;;;;8.52;1.25;;;;;;;;;;4988468;28;20042;-54
2021/09/08 10:03:14;;;;;;;7.53;1.48;;;;;;;;;;4991996;28;20042;-56
2021/09/08 10:05:40;;;;;;;7.55;1.33;;;;;;;;;;4988696;28;20522;-52
2021/09/08 10:08:06;;;;;;;11.30;1.70;;;;;;;;;;5000827;28;20038;-57
2021/09/08 10:10:34;;;;;;;8.25;1.50;;;;;;;;;;5006022;28;20053;-56
2021/09/08 10:13:06;;;;;;;8.23;1.45;;;;;;;;;;5012983;28;20052;-56
2021/09/08 10:15:32;;;;;;;6.43;1.70;;;;;;;;;;5004018;28;20049;-58
2021/09/08 10:18:05;;;;;;;3.60;0.95;;;;;;;;;;4991397;28;20057;-58
2021/09/08 10:20:31;;;;;;;3.70;1.27;;;;;;;;;;4989503;28;20509;-59
2021/09/08 10:23:05;;;;;;;6.57;1.27;;;;;;;;;;4989474;28;20624;-58
2021/09/08 10:25:31;;;;;;;12.15;1.70;;;;;;;;;;4988076;28;20048;-57
2021/09/08 10:27:56;;;;;;;6.43;1.50;;;;;;;;;;4989594;28;20050;-59
2021/09/08 10:30:26;;;;;;;6.78;1.10;;;;;;;;;;4991110;28;20034;-56
2021/09/08 10:32:55;;;;;;;11.07;1.40;;;;;;;;;;4990305;28;20057;-58
2021/09/08 10:35:21;;;;;;;7.47;1.27;;;;;;;;;;4989081;28;20056;-58
2021/09/08 10:37:48;;;;;;;7.40;1.17;;;;;;;;;;4992088;28;20053;-57
2021/09/08 10:40:14;;;;;;;6.47;1.15;;;;;;;;;;5000255;28;20045;-59
2021/09/08 10:42:49;;;;;;;4.38;1.30;;;;;;;;;;5007427;28;20049;-58
2021/09/08 10:45:25;;;;;;;4.75;1.13;;;;;;;;;;5016263;28;20584;-56
2021/09/08 10:47:51;;;;;;;7.93;1.50;;;;;;;;;;5013092;28;20656;-58
2021/09/08 10:50:37;;;;;;;6.80;1.02;;;;;;;;;;5002406;28;20038;-57
2021/09/08 10:53:21;;;;;;;6.38;1.50;;;;;;;;;;4989402;28;20033;-57
2021/09/08 10:55:47;;;;;;;7.47;1.40;;;;;;;;;;4989934;28;20068;-57
2021/09/08 10:58:13;;;;;;;6.63;1.50;;;;;;;;;;4988314;28;20076;-57
2021/09/08 11:00:40;;;;;;;8.35;1.33;;;;;;;;;;4987177;28;20906;-58
2021/09/08 11:03:24;;;;;;;11.07;1.42;;;;;;;;;;4992041;28;20070;-56
2021/09/08 11:05:59;;;;;;;4.95;1.40;;;;;;;;;;5001191;28;20096;-57
2021/09/08 11:08:27;;;;;;;3.80;0.88;;;;;;;;;;4984701;28;20495;-57
2021/09/08 11:11:12;;;;;;;4.22;1.08;;;;;;;;;;4991749;28;20034;-57
2021/09/08 11:13:39;;;;;;;4.97;1.40;;;;;;;;;;4985914;28;20111;-56
2021/09/08 11:16:18;;;;;;;4.28;1.35;;;;;;;;;;4986217;28;20085;-57
2021/09/08 11:18:44;;;;;;;4.72;1.27;;;;;;;;;;4993853;28;20173;-55
2021/09/08 11:21:10;;;;;;;5.60;1.08;;;;;;;;;;4995571;28;20097;-56
2021/09/08 11:23:36;;;;;;;4.30;1.00;;;;;;;;;;4991135;28;20033;-56
2021/09/08 11:26:06;;;;;;;3.30;1.25;;;;;;;;;;4988569;28;20034;-56
2021/09/08 11:28:32;;;;;;;4.57;1.13;;;;;;;;;;4986565;28;20046;-57
2021/09/08 11:30:58;;;;;;;9.38;1.33;;;;;;;;;;4988395;28;20039;-56
2021/09/08 11:33:33;;;;;;;4.97;1.42;;;;;;;;;;4987128;28;20057;-57
2021/09/08 11:35:59;;;;;;;5.20;1.38;;;;;;;;;;4987042;28;20058;-55
2021/09/08 11:38:26;;;;;;;15.15;1.38;;;;;;;;;;4985849;28;20189;-56
2021/09/08 11:40:53;;;;;;;5.35;1.40;;;;;;;;;;4995683;28;20034;-58
2021/09/08 11:43:38;;;;;;;7.47;1.20;;;;;;;;;;4994279;28;20046;-57
2021/09/08 11:46:18;;;;;;;2.72;1.00;;;;;;;;;;4991304;28;20046;-55
2021/09/08 11:48:45;;;;;;;4.55;1.60;;;;;;;;;;4996626;28;20064;-58
2021/09/08 11:51:12;;;;;;;8.40;1.48;;;;;;;;;;5005933;28;20033;-57
2021/09/08 11:53:38;;;;;;;6.05;1.30;;;;;;;;;;5006953;28;20095;-57
2021/09/08 11:56:09;;;;;;;8.35;1.10;;;;;;;;;;5009529;28;20026;-57
2021/09/08 11:58:35;;;;;;;8.02;1.38;;;;;;;;;;5008711;28;20042;-57
2021/09/08 12:01:00;;;;;;;5.72;1.40;;;;;;;;;;5007974;28;20103;-57
2021/09/08 12:03:27;;;;;;;4.35;1.35;;;;;;;;;;5007575;28;20049;-57
2021/09/08 12:06:06;;;;;;;4.13;1.30;;;;;;;;;;5008977;28;20614;-57
2021/09/08 12:08:31;;;;;;;8.07;1.30;;;;;;;;;;5008076;28;20069;-56
2021/09/08 12:10:57;;;;;;;9.98;1.35;;;;;;;;;;5009546;28;20109;-57
2021/09/08 12:13:35;;;;;;;4.43;1.17;;;;;;;;;;5009513;28;20053;-53
2021/09/08 12:16:01;;;;;;;10.13;1.67;;;;;;;;;;5011458;28;20061;-57
2021/09/08 12:18:27;;;;;;;13.23;1.50;;;;;;;;;;5008246;28;20049;-56
2021/09/08 12:20:53;;;;;;;9.13;1.42;;;;;;;;;;5008053;28;22749;-57
2021/09/08 12:23:32;;;;;;;9.70;1.77;;;;;;;;;;5006712;28;20455;-54
2021/09/08 12:26:08;;;;;;;7.05;1.63;;;;;;;;;;5009009;28;20125;-56
2021/09/08 12:28:34;;;;;;;5.20;1.48;;;;;;;;;;5007445;28;20514;-56
2021/09/08 12:31:20;;;;;;;7.82;1.95;;;;;;;;;;5007737;28;20082;-52
2021/09/08 12:33:58;;;;;;;8.77;1.70;;;;;;;;;;5007467;28;20038;-54
2021/09/08 12:36:24;;;;;;;11.50;1.98;;;;;;;;;;5007934;28;20045;-56
2021/09/08 12:38:51;;;;;;;16.27;1.98;;;;;;;;;;5006719;28;20928;-57
2021/09/08 12:41:28;;;;;;;6.38;1.60;;;;;;;;;;5009035;28;20873;-57
2021/09/08 12:43:54;;;;;;;4.72;1.58;;;;;;;;;;5007760;28;22709;-58
2021/09/08 12:46:38;;;;;;;4.68;1.63;;;;;;;;;;5007636;28;20053;-58
2021/09/08 12:49:05;;;;;;;7.88;1.42;;;;;;;;;;5007792;28;20046;-56
2021/09/08 12:51:31;;;;;;;5.35;1.50;;;;;;;;;;5008060;28;20041;-57
2021/09/08 12:53:57;;;;;;;10.45;2.15;;;;;;;;;;5007706;28;20064;-57
2021/09/08 12:56:22;;;;;;;11.95;3.08;;;;;;;;;;5007666;28;20220;-57
2021/09/08 12:58:48;;;;;;;13.77;2.90;;;;;;;;;;5007248;28;20067;-56
2021/09/08 13:01:14;;;;;;;6.78;1.70;;;;;;;;;;5009455;28;20045;-56
2021/09/08 13:03:40;;;;;;;8.25;1.83;;;;;;;;;;5008100;28;20050;-57
2021/09/08 13:06:06;;;;;;;9.82;2.67;;;;;;;;;;5009424;28;20041;-56
2021/09/08 13:08:32;;;;;;;8.93;2.25;;;;;;;;;;5003246;28;20041;-57
2021/09/08 13:10:58;;;;;;;14.10;2.10;;;;;;;;;;5006568;28;20048;-57
2021/09/08 13:13:25;;;;;;;10.88;2.35;;;;;;;;;;5009311;28;20058;-57
2021/09/08 13:15:51;;;;;;;13.65;3.00;;;;;;;;;;5011193;28;20068;-57
2021/09/08 13:18:17;;;;;;;8.68;2.10;;;;;;;;;;5006148;28;20053;-57
2021/09/08 13:20:44;;;;;;;16.52;2.72;;;;;;;;;;5005985;28;20491;-57
2021/09/08 13:23:11;;;;;;;10.77;2.03;;;;;;;;;;5006919;28;20037;-56
2021/09/08 13:25:37;;;;;;;8.07;1.58;;;;;;;;;;5007248;28;20042;-58
2021/09/08 13:28:03;;;;;;;8.05;1.73;;;;;;;;;;5008495;28;20030;-58
2021/09/08 13:30:29;;;;;;;20.13;2.30;;;;;;;;;;5006300;28;20037;-58
2021/09/08 13:32:54;;;;;;;12.90;2.53;;;;;;;;;;5006457;28;20050;-58
2021/09/08 13:35:20;;;;;;;13.48;2.08;;;;;;;;;;5007714;28;20559;-57
2021/09/08 13:37:46;;;;;;;6.90;1.80;;;;;;;;;;5006161;28;20068;-58
2021/09/08 13:40:12;;;;;;;12.27;2.28;;;;;;;;;;5008189;28;20053;-58
2021/09/08 13:42:38;;;;;;;11.57;2.47;;;;;;;;;;5005770;28;20065;-59
2021/09/08 13:45:04;;;;;;;11.32;2.00;;;;;;;;;;5006662;28;20569;-58
2021/09/08 13:47:30;;;;;;;12.75;2.30;;;;;;;;;;5006405;28;20069;-57
2021/09/08 13:49:56;;;;;;;17.30;2.65;;;;;;;;;;5007404;28;20084;-58
2021/09/08 13:52:22;;;;;;;9.18;2.20;;;;;;;;;;5008403;28;20148;-58
2021/09/08 13:54:48;;;;;;;8.77;2.13;;;;;;;;;;5005662;28;20057;-57
2021/09/08 13:57:13;;;;;;;6.95;2.13;;;;;;;;;;5007700;28;20046;-57
2021/09/08 13:59:39;;;;;;;9.52;2.25;;;;;;;;;;5007432;28;20140;-58
2021/09/08 14:02:05;;;;;;;7.25;1.92;;;;;;;;;;5007777;28;20046;-58
2021/09/08 14:04:31;;;;;;;9.50;2.15;;;;;;;;;;5008119;28;20140;-56
2021/09/08 14:06:57;;;;;;;8.93;1.85;;;;;;;;;;5007586;28;20061;-57
2021/09/08 14:09:23;;;;;;;6.72;1.83;;;;;;;;;;5008588;28;20112;-58
2021/09/08 14:11:52;;;;;;;7.45;2.05;;;;;;;;;;5011294;28;20065;-56
2021/09/08 14:14:18;;;;;;;8.75;2.35;;;;;;;;;;5008747;28;20047;-57
2021/09/08 14:16:44;;;;;;;7.20;1.90;;;;;;;;;;4988735;28;20117;-57
2021/09/08 14:19:12;;;;;;;12.13;2.50;;;;;;;;;;4986626;28;20133;-57
2021/09/08 14:21:38;;;;;;;7.82;2.35;;;;;;;;;;4987060;28;20050;-58
2021/09/08 14:24:04;;;;;;;10.93;1.98;;;;;;;;;;4990125;28;20068;-57
2021/09/08 14:26:30;;;;;;;9.75;2.33;;;;;;;;;;5011364;28;20380;-58
2021/09/08 14:28:56;;;;;;;14.55;2.60;;;;;;;;;;4988536;28;20042;-58
2021/09/08 14:31:22;;;;;;;10.88;1.85;;;;;;;;;;4990177;28;20054;-58
2021/09/08 14:33:47;;;;;;;6.72;2.50;;;;;;;;;;4992162;28;20056;-57
2021/09/08 14:36:13;;;;;;;10.57;2.42;;;;;;;;;;4993229;28;20050;-57